createdAt,value
2022-11-02T00:02:10.778Z,7.54
2022-11-02T00:04:37.400Z,7.59
2022-11-02T00:07:04.041Z,7.43
2022-11-02T00:09:30.662Z,7.16
2022-11-02T00:11:57.230Z,7.04
2022-11-02T00:14:23.785Z,6.95
2022-11-02T00:16:50.673Z,6.92
2022-11-02T00:19:17.522Z,6.87
2022-11-02T00:21:44.329Z,6.85
2022-11-02T00:24:12.414Z,6.85
2022-11-02T00:26:39.056Z,6.91
2022-11-02T00:29:06.361Z,7.05
2022-11-02T00:31:32.939Z,7.12
2022-11-02T00:33:59.546Z,7.14
2022-11-02T00:36:26.427Z,7.16
2022-11-02T00:38:52.993Z,7.21
2022-11-02T00:41:20.612Z,7.24
2022-11-02T00:43:47.408Z,7.21
2022-11-02T00:46:14.551Z,7.16
2022-11-02T00:48:41.859Z,7.30
2022-11-02T00:51:09.337Z,7.36
2022-11-02T00:53:35.954Z,7.38
2022-11-02T00:56:02.581Z,7.33
2022-11-02T00:58:29.437Z,7.24
2022-11-02T01:00:56.592Z,6.99
2022-11-02T01:03:23.386Z,6.69
2022-11-02T01:05:50.005Z,6.60
2022-11-02T01:08:16.570Z,6.44
2022-11-02T01:10:45.633Z,6.35
2022-11-02T01:13:16.650Z,6.36
2022-11-02T01:15:43.229Z,6.37
2022-11-02T01:18:09.835Z,6.36
2022-11-02T01:20:36.413Z,6.38
2022-11-02T01:23:02.973Z,6.32
2022-11-02T01:25:29.519Z,6.32
2022-11-02T01:27:56.422Z,6.29
2022-11-02T01:30:22.977Z,6.32
2022-11-02T01:32:49.548Z,6.34
2022-11-02T01:35:16.798Z,6.35
2022-11-02T01:37:43.506Z,6.33
2022-11-02T01:40:10.747Z,6.30
2022-11-02T01:42:37.415Z,6.32
2022-11-02T01:45:04.272Z,6.23
2022-11-02T01:47:40.629Z,6.08
2022-11-02T01:50:19.173Z,6.11
2022-11-02T01:52:45.813Z,6.03
2022-11-02T01:55:20.432Z,6.00
2022-11-02T01:57:52.538Z,6.02
2022-11-02T02:00:20.492Z,6.17
2022-11-02T02:03:01.140Z,6.43
2022-11-02T02:05:29.688Z,6.57
2022-11-02T02:07:56.924Z,6.69
2022-11-02T02:10:23.564Z,6.74
2022-11-02T02:12:50.539Z,6.77
2022-11-02T02:15:23.280Z,6.80
2022-11-02T02:17:52.853Z,6.65
2022-11-02T02:20:51.381Z,6.99
2022-11-02T02:23:35.269Z,7.27
2022-11-02T02:26:20.585Z,7.56
2022-11-02T02:29:08.435Z,7.80
2022-11-02T02:31:43.004Z,7.83
2022-11-02T02:34:14.101Z,7.78
2022-11-02T02:36:51.668Z,7.63
2022-11-02T02:39:36.290Z,7.55
2022-11-02T02:42:13.777Z,7.49
2022-11-02T02:44:46.078Z,7.44
2022-11-02T02:47:17.493Z,7.37
2022-11-02T02:49:52.614Z,7.32
2022-11-02T02:52:21.783Z,7.31
2022-11-02T02:54:52.187Z,7.19
2022-11-02T02:57:24.391Z,7.22
2022-11-02T02:59:51.200Z,7.27
2022-11-02T03:02:25.473Z,7.25
2022-11-02T03:04:52.859Z,7.25
2022-11-02T03:07:34.035Z,7.27
2022-11-02T03:10:09.308Z,7.32
2022-11-02T03:12:48.104Z,7.33
2022-11-02T03:15:34.677Z,7.38
2022-11-02T03:18:23.970Z,7.42
2022-11-02T03:20:58.981Z,7.42
2022-11-02T03:23:35.618Z,7.43
2022-11-02T03:26:09.087Z,7.47
2022-11-02T03:29:04.756Z,7.44
2022-11-02T03:31:43.213Z,7.42
2022-11-02T03:34:23.054Z,7.41
2022-11-02T03:37:06.609Z,7.43
2022-11-02T03:39:38.350Z,7.41
2022-11-02T03:42:07.114Z,7.41
2022-11-02T03:44:39.702Z,7.43
2022-11-02T03:47:12.923Z,7.40
2022-11-02T03:49:42.856Z,7.35
2022-11-02T03:52:14.759Z,7.32
2022-11-02T03:54:53.732Z,7.29
2022-11-02T03:57:26.959Z,7.27
2022-11-02T03:59:53.582Z,7.23
2022-11-02T04:02:20.280Z,7.26
2022-11-02T04:04:52.128Z,7.21
2022-11-02T04:07:27.282Z,7.16
2022-11-02T04:09:53.865Z,7.14
2022-11-02T04:12:39.577Z,7.14
2022-11-02T04:15:07.645Z,7.05
2022-11-02T04:17:53.118Z,7.13
2022-11-02T04:20:19.702Z,7.05
2022-11-02T04:23:05.518Z,6.96
2022-11-02T04:25:32.186Z,6.95
2022-11-02T04:28:14.430Z,6.86
2022-11-02T04:30:48.213Z,6.79
2022-11-02T04:33:34.439Z,6.83
2022-11-02T04:36:15.788Z,6.83
2022-11-02T04:38:44.784Z,6.88
2022-11-02T04:41:43.661Z,6.95
2022-11-02T04:44:16.971Z,7.04
2022-11-02T04:46:51.774Z,7.09
2022-11-02T04:49:19.167Z,7.10
2022-11-02T04:51:49.727Z,7.12
2022-11-02T04:54:18.614Z,7.16
2022-11-02T04:56:47.873Z,7.20
2022-11-02T04:59:15.830Z,7.29
2022-11-02T05:01:42.901Z,7.28
2022-11-02T05:04:10.296Z,7.31
2022-11-02T05:06:37.304Z,7.37
2022-11-02T05:09:04.353Z,7.45
2022-11-02T05:11:32.706Z,7.49
2022-11-02T05:13:59.998Z,7.52
2022-11-02T05:16:28.464Z,7.60
2022-11-02T05:18:55.086Z,7.72
2022-11-02T05:21:23.237Z,7.81
2022-11-02T05:23:51.074Z,7.92
2022-11-02T05:26:18.006Z,7.98
2022-11-02T05:28:47.650Z,8.08
2022-11-02T05:31:14.318Z,8.14
2022-11-02T05:33:40.921Z,8.15
2022-11-02T05:36:12.834Z,8.14
2022-11-02T05:38:42.849Z,8.12
2022-11-02T05:41:09.945Z,8.14
2022-11-02T05:43:38.968Z,8.13
2022-11-02T05:46:07.717Z,8.16
2022-11-02T05:48:34.367Z,8.19
2022-11-02T05:51:03.860Z,8.26
2022-11-02T05:53:32.538Z,8.27
2022-11-02T05:56:00.272Z,8.35
2022-11-02T05:58:28.060Z,8.38
2022-11-02T06:00:54.750Z,8.38
2022-11-02T06:03:21.321Z,8.40
2022-11-02T06:05:47.972Z,8.38
2022-11-02T06:08:14.561Z,8.35
2022-11-02T06:10:43.236Z,8.33
2022-11-02T06:13:10.260Z,8.34
2022-11-02T06:15:36.871Z,8.34
2022-11-02T06:18:03.537Z,8.40
2022-11-02T06:20:30.101Z,8.38
2022-11-02T06:22:56.895Z,8.38
2022-11-02T06:25:23.502Z,8.34
2022-11-02T06:27:53.018Z,8.32
2022-11-02T06:30:20.105Z,8.32
2022-11-02T06:32:48.264Z,8.30
2022-11-02T06:35:15.953Z,8.26
2022-11-02T06:37:42.780Z,8.23
2022-11-02T06:40:10.729Z,8.16
2022-11-02T06:42:44.831Z,8.15
2022-11-02T06:45:17.398Z,8.07
2022-11-02T06:47:43.991Z,8.13
2022-11-02T06:50:10.736Z,8.18
2022-11-02T06:52:43.243Z,8.27
2022-11-02T06:55:09.921Z,8.29
2022-11-02T06:57:37.699Z,8.33
2022-11-02T07:00:06.685Z,8.37
2022-11-02T07:02:33.511Z,8.39
2022-11-02T07:05:00.160Z,8.48
2022-11-02T07:07:26.783Z,8.68
2022-11-02T07:09:53.326Z,8.76
2022-11-02T07:12:23.064Z,8.86
2022-11-02T07:14:50.033Z,8.98
2022-11-02T07:17:16.572Z,8.99
2022-11-02T07:19:43.129Z,9.04
2022-11-02T07:22:10.290Z,9.12
2022-11-02T07:24:36.852Z,9.30
2022-11-02T07:27:03.517Z,9.41
2022-11-02T07:29:30.072Z,9.51
2022-11-02T07:31:56.723Z,9.55
2022-11-02T07:34:23.378Z,9.53
2022-11-02T07:36:49.962Z,9.50
2022-11-02T07:39:17.755Z,9.49
2022-11-02T07:41:49.338Z,9.40
2022-11-02T07:44:18.257Z,9.33
2022-11-02T07:46:53.797Z,9.30
2022-11-02T07:49:21.597Z,9.32
2022-11-02T07:51:48.898Z,9.38
2022-11-02T07:54:15.500Z,9.60
2022-11-02T07:56:43.942Z,9.75
2022-11-02T07:59:11.147Z,10.02
2022-11-02T08:01:37.740Z,10.53
2022-11-02T08:04:04.555Z,10.97
2022-11-02T08:06:31.167Z,11.27
2022-11-02T08:08:57.756Z,11.42
2022-11-02T08:11:24.318Z,11.54
2022-11-02T08:13:50.926Z,11.68
2022-11-02T08:16:17.524Z,12.19
2022-11-02T08:18:44.089Z,12.50
2022-11-02T08:21:10.651Z,12.34
2022-11-02T08:23:37.226Z,12.23
2022-11-02T08:26:03.809Z,12.23
2022-11-02T08:28:32.182Z,12.26
2022-11-02T08:30:59.447Z,12.19
2022-11-02T08:33:26.221Z,12.44
2022-11-02T08:35:53.646Z,12.75
2022-11-02T08:38:23.546Z,12.79
2022-11-02T08:40:50.120Z,12.97
2022-11-02T08:43:16.686Z,13.17
2022-11-02T08:48:32.100Z,13.30
2022-11-02T08:50:58.819Z,13.41
2022-11-02T08:53:25.371Z,13.68
2022-11-02T08:55:51.934Z,13.40
2022-11-02T08:58:18.597Z,13.45
2022-11-02T09:00:45.477Z,13.48
2022-11-02T09:03:14.221Z,13.41
2022-11-02T09:05:45.668Z,13.66
2022-11-02T09:08:19.247Z,13.64
2022-11-02T09:10:51.825Z,13.31
2022-11-02T09:13:22.075Z,13.12
2022-11-02T09:15:56.737Z,13.23
2022-11-02T09:18:23.865Z,13.16
2022-11-02T09:20:51.491Z,13.17
2022-11-02T09:23:20.339Z,13.27
2022-11-02T09:25:47.829Z,13.39
2022-11-02T09:28:15.657Z,13.51
2022-11-02T09:30:42.934Z,13.53
2022-11-02T09:33:09.934Z,13.71
2022-11-02T09:35:42.635Z,13.72
2022-11-02T09:38:09.195Z,13.56
2022-11-02T09:40:45.989Z,13.63
2022-11-02T09:43:49.487Z,13.75
2022-11-02T09:46:19.858Z,13.93
2022-11-02T09:48:52.692Z,13.96
2022-11-02T09:51:23.401Z,13.98
2022-11-02T09:54:17.642Z,13.96
2022-11-02T09:56:45.938Z,13.92
2022-11-02T09:59:26.149Z,13.84
2022-11-02T10:02:04.756Z,13.75
2022-11-02T10:04:49.309Z,13.65
2022-11-02T10:07:53.235Z,13.69
2022-11-02T10:10:22.783Z,13.69
2022-11-02T10:13:22.480Z,13.65
2022-11-02T10:16:00.309Z,13.69
2022-11-02T10:18:29.887Z,13.69
2022-11-02T10:20:59.385Z,13.91
2022-11-02T10:23:38.029Z,14.12
2022-11-02T10:26:04.763Z,14.12
2022-11-02T10:28:36.373Z,13.83
2022-11-02T10:31:03.607Z,13.88
2022-11-02T10:33:31.925Z,13.82
2022-11-02T10:36:17.394Z,13.93
2022-11-02T10:39:01.450Z,13.97
2022-11-02T10:41:54.534Z,13.96
2022-11-02T10:45:30.589Z,14.21
2022-11-02T10:48:15.422Z,14.08
2022-11-02T10:50:48.909Z,14.13
2022-11-02T10:53:40.067Z,14.19
2022-11-02T10:56:21.756Z,14.01
2022-11-02T10:59:09.168Z,14.26
2022-11-02T11:01:36.103Z,14.10
2022-11-02T11:04:05.354Z,14.19
2022-11-02T11:06:37.674Z,14.12
2022-11-02T11:09:06.050Z,14.32
2022-11-02T11:11:38.253Z,14.42
2022-11-02T11:20:25.966Z,14.06
2022-11-02T11:23:23.402Z,14.15
2022-11-02T11:26:13.996Z,14.14
2022-11-02T11:28:53.499Z,14.22
2022-11-02T11:31:20.852Z,14.19
2022-11-02T11:33:50.935Z,14.21
2022-11-02T11:36:35.560Z,14.44
2022-11-02T11:39:21.781Z,14.73
2022-11-02T11:41:48.471Z,14.60
2022-11-02T11:44:16.078Z,14.51
2022-11-02T11:46:46.624Z,14.45
2022-11-02T11:52:29.916Z,14.32
2022-11-02T11:55:22.475Z,14.16
2022-11-02T11:58:07.857Z,14.07
2022-11-02T12:00:34.779Z,14.15
2022-11-02T12:03:07.669Z,14.21
2022-11-02T12:05:41.491Z,13.97
2022-11-02T12:08:23.272Z,13.82
2022-11-02T12:10:58.948Z,14.05
2022-11-02T12:14:02.220Z,13.92
2022-11-02T12:16:51.301Z,13.56
2022-11-02T12:19:33.868Z,13.63
2022-11-02T12:22:27.010Z,13.64
2022-11-02T12:25:27.736Z,13.93
2022-11-02T12:28:03.425Z,13.81
2022-11-02T12:31:00.143Z,13.72
2022-11-02T12:33:40.771Z,13.64
2022-11-02T12:36:26.248Z,13.67
2022-11-02T12:38:53.521Z,13.80
2022-11-02T12:41:29.472Z,13.77
2022-11-02T12:44:11.657Z,13.93
2022-11-02T12:47:10.052Z,13.98
2022-11-02T12:50:15.662Z,14.02
2022-11-02T12:53:17.442Z,13.94
2022-11-02T12:55:49.050Z,13.96
2022-11-02T12:58:21.822Z,14.06
2022-11-02T13:00:55.091Z,14.23
2022-11-02T13:03:57.981Z,14.16
2022-11-02T13:06:34.087Z,14.15
2022-11-02T13:09:18.495Z,14.01
2022-11-02T13:11:54.405Z,14.16
2022-11-02T13:14:22.830Z,14.12
2022-11-02T13:16:55.885Z,13.99
2022-11-02T13:19:29.150Z,13.90
2022-11-02T13:21:57.994Z,13.76
2022-11-02T13:24:33.696Z,14.12
2022-11-02T13:27:21.736Z,14.06
2022-11-02T13:29:57.616Z,13.76
2022-11-02T13:32:36.680Z,13.52
2022-11-02T13:35:14.153Z,13.47
2022-11-02T13:37:46.902Z,13.37
2022-11-02T13:40:38.128Z,13.30
2022-11-02T13:43:35.029Z,13.28
2022-11-02T13:46:23.338Z,13.41
2022-11-02T13:48:59.197Z,13.86
2022-11-02T13:51:42.804Z,13.65
2022-11-02T13:54:19.474Z,13.45
2022-11-02T13:56:51.540Z,13.38
2022-11-02T13:59:31.912Z,13.37
2022-11-02T14:02:02.682Z,13.52
2022-11-02T14:04:38.423Z,13.43
2022-11-02T14:07:09.204Z,13.48
2022-11-02T14:09:40.628Z,13.54
2022-11-02T14:12:22.376Z,13.71
2022-11-02T14:15:13.988Z,13.39
2022-11-02T14:17:56.383Z,13.52
2022-11-02T14:20:39.659Z,13.47
2022-11-02T14:23:26.463Z,13.49
2022-11-02T14:25:55.310Z,13.41
2022-11-02T14:28:22.063Z,13.38
2022-11-02T14:30:49.221Z,13.41
2022-11-02T14:33:29.604Z,13.44
2022-11-02T14:36:02.254Z,13.28
2022-11-02T14:39:06.252Z,13.28
2022-11-02T14:42:16.363Z,13.17
2022-11-02T14:44:45.950Z,13.31
2022-11-02T14:47:18.529Z,13.25
2022-11-02T14:49:56.411Z,13.14
2022-11-02T14:52:33.723Z,13.30
2022-11-02T14:55:02.338Z,12.96
2022-11-02T14:57:42.581Z,12.88
2022-11-02T15:00:21.438Z,12.69
2022-11-02T15:02:49.328Z,12.50
2022-11-02T15:05:38.571Z,12.45
2022-11-02T15:08:08.865Z,12.40
2022-11-02T15:10:39.894Z,12.40
2022-11-02T15:13:34.176Z,12.35
2022-11-02T15:16:00.667Z,12.30
2022-11-02T15:18:30.177Z,12.29
2022-11-02T15:21:26.872Z,12.21
2022-11-02T15:24:02.759Z,11.91
2022-11-02T15:26:41.618Z,11.57
2022-11-02T15:29:30.456Z,11.28
2022-11-02T15:31:58.315Z,11.14
2022-11-02T15:34:33.449Z,11.03
2022-11-02T15:37:00.706Z,11.00
2022-11-02T15:39:27.736Z,10.94
2022-11-02T15:42:03.832Z,10.83
2022-11-02T15:44:50.492Z,10.72
2022-11-02T15:47:36.915Z,10.47
2022-11-02T15:50:19.999Z,9.98
2022-11-02T15:53:22.199Z,9.80
2022-11-02T15:56:07.160Z,9.67
2022-11-02T15:58:52.047Z,9.60
2022-11-02T16:01:26.999Z,9.58
2022-11-02T16:03:58.784Z,9.57
2022-11-02T16:06:29.575Z,9.50
2022-11-02T16:09:01.476Z,9.38
2022-11-02T16:11:28.847Z,9.25
2022-11-02T16:14:16.199Z,9.10
2022-11-02T16:16:48.157Z,8.95
2022-11-02T16:19:21.944Z,8.89
2022-11-02T16:21:49.502Z,8.80
2022-11-02T16:24:16.908Z,8.74
2022-11-02T16:26:45.265Z,8.69
2022-11-02T16:29:19.360Z,8.60
2022-11-02T16:31:45.956Z,8.51
2022-11-02T16:34:18.687Z,8.37
2022-11-02T16:36:46.202Z,8.32
2022-11-02T16:39:21.507Z,8.32
2022-11-02T16:41:55.764Z,8.25
2022-11-02T16:44:26.536Z,8.23
2022-11-02T16:47:08.442Z,8.15
2022-11-02T16:49:56.395Z,8.05
2022-11-02T16:52:27.510Z,7.89
2022-11-02T16:54:54.094Z,7.79
2022-11-02T16:57:33.940Z,7.71
2022-11-02T17:00:05.039Z,7.68
2022-11-02T17:02:41.652Z,7.59
2022-11-02T17:05:27.153Z,7.52
2022-11-02T17:08:08.367Z,7.47
2022-11-02T17:10:37.670Z,7.40
2022-11-02T17:13:09.153Z,7.36
2022-11-02T17:15:37.469Z,7.36
2022-11-02T17:18:10.050Z,7.33
2022-11-02T17:20:38.470Z,7.34
2022-11-02T17:23:08.068Z,7.25
2022-11-02T17:25:37.357Z,7.12
2022-11-02T17:28:38.826Z,7.01
2022-11-02T17:31:17.911Z,6.93
2022-11-02T17:33:44.780Z,6.92
2022-11-02T17:36:11.601Z,6.88
2022-11-02T17:38:38.677Z,6.84
2022-11-02T17:41:28.342Z,6.84
2022-11-02T17:43:54.880Z,6.78
2022-11-02T17:46:21.473Z,6.74
2022-11-02T17:48:48.099Z,6.79
2022-11-02T17:51:15.399Z,6.77
2022-11-02T17:53:42.455Z,6.74
2022-11-02T17:56:11.059Z,6.67
2022-11-02T17:58:37.733Z,6.59
2022-11-02T18:01:05.303Z,6.55
2022-11-02T18:03:32.002Z,6.55
2022-11-02T18:06:00.304Z,6.56
2022-11-02T18:08:27.496Z,6.37
2022-11-02T18:10:54.591Z,6.33
2022-11-02T18:13:23.408Z,6.25
2022-11-02T18:15:50.355Z,6.24
2022-11-02T18:18:17.001Z,6.19
2022-11-02T18:20:43.573Z,6.20
2022-11-02T18:23:16.572Z,6.30
2022-11-02T18:25:43.383Z,6.30
2022-11-02T18:28:10.040Z,6.31
2022-11-02T18:30:36.596Z,6.27
2022-11-02T18:33:03.210Z,6.25
2022-11-02T18:35:29.789Z,6.26
2022-11-02T18:37:56.815Z,6.23
2022-11-02T18:40:23.513Z,6.13
2022-11-02T18:42:50.304Z,6.08
2022-11-02T18:45:18.480Z,6.04
2022-11-02T18:47:45.190Z,5.99
2022-11-02T18:50:13.480Z,6.02
2022-11-02T18:52:41.824Z,6.01
2022-11-02T18:55:08.664Z,5.97
2022-11-02T18:57:35.240Z,5.94
2022-11-02T19:00:02.856Z,5.93
2022-11-02T19:02:30.001Z,5.91
2022-11-02T19:04:56.729Z,5.92
2022-11-02T19:07:42.120Z,5.89
2022-11-02T19:10:09.822Z,5.84
2022-11-02T19:12:36.724Z,5.81
2022-11-02T19:15:03.834Z,5.75
2022-11-02T19:17:30.491Z,5.75
2022-11-02T19:19:57.436Z,5.69
2022-11-02T19:22:26.136Z,5.47
2022-11-02T19:24:53.072Z,5.37
2022-11-02T19:27:22.260Z,5.35
2022-11-02T19:29:49.028Z,5.41
2022-11-02T19:32:16.084Z,5.42
2022-11-02T19:34:43.077Z,5.45
2022-11-02T19:37:10.015Z,5.46
2022-11-02T19:39:36.796Z,5.43
2022-11-02T19:42:03.569Z,5.41
2022-11-02T19:44:30.782Z,5.42
2022-11-02T19:46:57.530Z,5.49
2022-11-02T19:49:27.118Z,5.46
2022-11-02T19:51:53.836Z,5.42
2022-11-02T19:54:20.617Z,5.36
2022-11-02T19:56:47.187Z,5.31
2022-11-02T19:59:13.786Z,5.24
2022-11-02T20:01:45.071Z,5.22
2022-11-02T20:04:11.740Z,5.05
2022-11-02T20:06:40.846Z,5.10
2022-11-02T20:09:14.634Z,5.02
2022-11-02T20:11:45.156Z,5.05
2022-11-02T20:14:13.310Z,5.16
2022-11-02T20:16:40.150Z,5.04
2022-11-02T20:19:07.236Z,4.96
2022-11-02T20:21:38.290Z,4.93
2022-11-02T20:24:08.241Z,4.85
2022-11-02T20:26:36.678Z,4.82
2022-11-02T20:29:04.880Z,4.98
2022-11-02T20:31:39.210Z,4.92
2022-11-02T20:34:08.174Z,4.82
2022-11-02T20:36:34.964Z,4.82
2022-11-02T20:39:04.584Z,4.74
2022-11-02T20:41:31.278Z,4.72
2022-11-02T20:43:57.875Z,4.69
2022-11-02T20:46:42.917Z,4.73
2022-11-02T20:49:22.859Z,4.66
2022-11-02T20:51:58.180Z,4.74
2022-11-02T20:54:26.148Z,4.82
2022-11-02T20:56:52.763Z,4.79
2022-11-02T20:59:19.366Z,4.80
2022-11-02T21:01:46.220Z,4.73
2022-11-02T21:04:18.618Z,4.76
2022-11-02T21:06:47.090Z,4.67
2022-11-02T21:09:13.692Z,4.68
2022-11-02T21:11:58.879Z,4.68
2022-11-02T21:14:25.460Z,4.82
2022-11-02T21:16:52.078Z,4.84
2022-11-02T21:19:18.631Z,4.86
2022-11-02T21:21:45.260Z,4.77
2022-11-02T21:24:12.130Z,4.70
2022-11-02T21:26:38.675Z,4.59
2022-11-02T21:29:05.325Z,4.55
2022-11-02T21:31:31.902Z,4.53
2022-11-02T21:33:58.522Z,4.53
2022-11-02T21:36:25.173Z,4.52
2022-11-02T21:38:51.736Z,4.43
2022-11-02T21:41:26.484Z,4.35
2022-11-02T21:43:55.418Z,4.33
2022-11-02T21:46:22.381Z,4.30
2022-11-02T21:48:49.014Z,4.21
2022-11-02T21:51:18.793Z,4.15
2022-11-02T21:53:47.456Z,4.09
2022-11-02T21:56:19.262Z,3.98
2022-11-02T21:58:46.675Z,4.05
2022-11-02T22:01:35.778Z,4.00
2022-11-02T22:04:03.245Z,4.01
2022-11-02T22:06:31.694Z,3.92
2022-11-02T22:08:59.965Z,3.87
2022-11-02T22:11:27.553Z,3.86
2022-11-02T22:13:58.692Z,3.89
2022-11-02T22:16:34.855Z,3.82
2022-11-02T22:19:06.556Z,3.82
2022-11-02T22:21:36.296Z,3.79
2022-11-02T22:24:03.500Z,3.82
2022-11-02T22:26:31.092Z,3.86
2022-11-02T22:28:58.017Z,3.78
2022-11-02T22:31:27.069Z,3.75
2022-11-02T22:33:55.673Z,3.73
2022-11-02T22:36:24.985Z,3.71
2022-11-02T22:38:53.543Z,3.68
2022-11-02T22:41:23.203Z,3.67
2022-11-02T22:43:58.417Z,3.69
2022-11-02T22:46:27.142Z,3.64
2022-11-02T22:48:55.866Z,3.61
2022-11-02T22:51:25.071Z,3.63
2022-11-02T22:53:52.474Z,3.59
2022-11-02T22:56:21.088Z,3.64
2022-11-02T22:58:48.835Z,3.59
2022-11-02T23:01:20.879Z,3.61
2022-11-02T23:03:48.600Z,3.61
2022-11-02T23:06:16.300Z,3.62
2022-11-02T23:08:48.394Z,3.62
2022-11-02T23:11:23.442Z,3.60
2022-11-02T23:13:57.415Z,3.54
2022-11-02T23:16:29.177Z,3.55
2022-11-02T23:19:20.412Z,3.56
2022-11-02T23:22:28.432Z,3.54
2022-11-02T23:25:13.712Z,3.54
2022-11-02T23:28:12.510Z,3.53
2022-11-02T23:30:58.289Z,3.53
2022-11-02T23:33:29.793Z,3.47
2022-11-02T23:36:12.285Z,3.43
2022-11-02T23:38:58.752Z,3.42
2022-11-02T23:41:25.954Z,3.45
2022-11-02T23:44:11.215Z,3.58
2022-11-02T23:46:38.962Z,3.69
2022-11-02T23:49:05.565Z,3.69
2022-11-02T23:51:50.630Z,3.69
2022-11-02T23:54:36.135Z,3.73
2022-11-02T23:57:02.753Z,3.70
2022-11-02T23:59:29.383Z,3.71
